createdAt,value
2022-08-17T00:02:26.485Z,97484.78
2022-08-17T00:05:47.007Z,97483.97
2022-08-17T00:08:57.014Z,97482.88
2022-08-17T00:12:34.832Z,97482.28
2022-08-17T00:15:28.664Z,97480.16
2022-08-17T00:18:58.301Z,97481.47
2022-08-17T00:22:34.933Z,97483.38
2022-08-17T00:25:32.470Z,97484.44
2022-08-17T00:28:38.415Z,97475.25
2022-08-17T00:31:45.529Z,97481.50
2022-08-17T00:34:51.148Z,97481.22
2022-08-17T00:37:59.373Z,97496.13
2022-08-17T00:41:12.135Z,97488.81
2022-08-17T00:44:17.778Z,97493.88
2022-08-17T00:47:23.517Z,97490.09
2022-08-17T00:50:29.282Z,97485.47
2022-08-17T00:53:45.644Z,97489.50
2022-08-17T00:57:00.157Z,97490.28
2022-08-17T01:00:14.605Z,97493.56
2022-08-17T01:03:27.838Z,97486.72
2022-08-17T01:06:34.280Z,97494.91
2022-08-17T01:09:44.773Z,97486.53
2022-08-17T01:12:50.509Z,97489.88
2022-08-17T01:16:06.074Z,97492.94
2022-08-17T01:19:21.786Z,97485.66
2022-08-17T01:22:30.460Z,97493.44
2022-08-17T01:25:36.836Z,97498.78
2022-08-17T01:28:53.865Z,97495.53
2022-08-17T01:32:05.764Z,97503.66
2022-08-17T01:35:13.312Z,97499.06
2022-08-17T01:38:27.151Z,97495.25
2022-08-17T01:41:32.907Z,97497.75
2022-08-17T01:44:38.895Z,97505.59
2022-08-17T01:47:44.610Z,97506.16
2022-08-17T01:50:54.724Z,97510.72
2022-08-17T01:54:08.664Z,97502.31
2022-08-17T01:57:14.973Z,97509.38
2022-08-17T02:00:20.908Z,97503.97
2022-08-17T02:03:28.057Z,97496.09
2022-08-17T02:06:45.080Z,97497.75
2022-08-17T02:10:01.265Z,97501.78
2022-08-17T02:13:09.168Z,97497.09
2022-08-17T02:16:16.027Z,97503.63
2022-08-17T02:19:22.933Z,97495.22
2022-08-17T02:22:29.019Z,97501.94
2022-08-17T02:25:38.671Z,97500.84
2022-08-17T02:28:44.319Z,97499.25
2022-08-17T02:31:50.808Z,97497.63
2022-08-17T02:34:56.638Z,97502.50
2022-08-17T02:38:02.280Z,97500.53
2022-08-17T02:41:12.862Z,97500.22
2022-08-17T02:44:39.632Z,97498.38
2022-08-17T02:47:46.591Z,97504.59
2022-08-17T02:50:55.017Z,97506.19
2022-08-17T02:54:41.680Z,97510.72
2022-08-17T02:57:33.541Z,97504.25
2022-08-17T03:00:47.179Z,97512.22
2022-08-17T03:03:52.840Z,97515.50
2022-08-17T03:06:58.502Z,97507.72
2022-08-17T03:10:04.215Z,97506.28
2022-08-17T03:13:14.554Z,97507.75
2022-08-17T03:16:20.148Z,97510.81
2022-08-17T03:19:25.975Z,97509.38
2022-08-17T03:22:36.904Z,97509.66
2022-08-17T03:25:50.019Z,97511.28
2022-08-17T03:29:03.884Z,97509.38
2022-08-17T03:32:15.842Z,97509.50
2022-08-17T03:35:25.666Z,97521.84
2022-08-17T03:38:39.375Z,97522.53
2022-08-17T03:41:45.159Z,97522.88
2022-08-17T03:44:57.025Z,97524.31
2022-08-17T03:48:18.099Z,97529.53
2022-08-17T03:51:39.752Z,97530.28
2022-08-17T03:55:00.670Z,97531.47
2022-08-17T03:58:07.000Z,97537.34
2022-08-17T04:01:17.216Z,97537.56
2022-08-17T04:04:26.148Z,97547.94
2022-08-17T04:07:36.683Z,97556.56
2022-08-17T04:10:44.936Z,97557.88
2022-08-17T04:13:51.598Z,97550.03
2022-08-17T04:17:03.159Z,97562.00
2022-08-17T04:20:11.572Z,97562.00
2022-08-17T04:23:22.605Z,97561.13
2022-08-17T04:26:50.595Z,97558.94
2022-08-17T04:29:56.100Z,97564.41
2022-08-17T04:33:09.048Z,97565.63
2022-08-17T04:36:20.577Z,97569.94
2022-08-17T04:39:26.611Z,97574.66
2022-08-17T04:42:29.860Z,97577.94
2022-08-17T04:45:55.383Z,97567.34
2022-08-17T04:49:13.372Z,97580.59
2022-08-17T04:52:29.865Z,97576.56
2022-08-17T04:55:46.280Z,97575.75
2022-08-17T04:58:58.836Z,97575.91
2022-08-17T05:02:04.459Z,97582.47
2022-08-17T05:05:12.950Z,97585.47
2022-08-17T05:08:22.772Z,97578.56
2022-08-17T05:11:31.087Z,97579.13
2022-08-17T05:14:59.937Z,97573.06
2022-08-17T05:18:06.477Z,97572.44
2022-08-17T05:21:14.707Z,97579.84
2022-08-17T05:24:39.173Z,97581.97
2022-08-17T05:27:45.926Z,97577.56
2022-08-17T05:30:52.528Z,97585.31
2022-08-17T05:33:59.810Z,97588.03
2022-08-17T05:37:13.634Z,97589.19
2022-08-17T05:40:21.061Z,97594.66
2022-08-17T05:43:31.431Z,97588.22
2022-08-17T05:46:46.453Z,97594.81
2022-08-17T05:49:53.865Z,97591.16
2022-08-17T05:53:14.200Z,97590.97
2022-08-17T05:56:46.475Z,97588.91
2022-08-17T06:00:15.028Z,97592.66
2022-08-17T06:03:45.538Z,97588.41
2022-08-17T06:07:07.815Z,97596.22
2022-08-17T06:10:36.211Z,97595.78
2022-08-17T06:14:09.502Z,97581.38
2022-08-17T06:17:23.192Z,97591.56
2022-08-17T06:20:46.205Z,97592.91
2022-08-17T06:24:01.225Z,97594.34
2022-08-17T06:27:19.355Z,97592.22
2022-08-17T06:30:57.397Z,97579.59
2022-08-17T06:33:55.368Z,97583.44
2022-08-17T06:37:22.914Z,97583.84
2022-08-17T06:41:02.111Z,97595.56
2022-08-17T06:44:49.934Z,97597.28
2022-08-17T06:48:10.058Z,97592.00
2022-08-17T06:51:35.781Z,97582.66
2022-08-17T06:55:05.075Z,97593.28
2022-08-17T06:58:22.517Z,97581.75
2022-08-17T07:01:39.349Z,97591.91
2022-08-17T07:04:45.140Z,97593.22
2022-08-17T07:08:04.902Z,97595.59
2022-08-17T07:11:17.597Z,97595.50
2022-08-17T07:14:41.346Z,97583.16
2022-08-17T07:17:50.347Z,97589.53
2022-08-17T07:21:09.287Z,97596.41
2022-08-17T07:24:39.798Z,97586.56
2022-08-17T07:27:51.508Z,97591.66
2022-08-17T07:30:58.161Z,97598.88
2022-08-17T07:34:17.386Z,97594.25
2022-08-17T07:37:23.048Z,97597.69
2022-08-17T07:40:39.260Z,97602.81
2022-08-17T07:43:53.307Z,97599.41
2022-08-17T07:47:20.280Z,97606.81
2022-08-17T07:50:34.689Z,97609.66
2022-08-17T07:53:41.806Z,97607.09
2022-08-17T07:56:52.608Z,97614.63
2022-08-17T08:00:32.136Z,97619.41
2022-08-17T08:03:46.591Z,97615.13
2022-08-17T08:07:12.093Z,97618.66
2022-08-17T08:10:33.685Z,97616.03
2022-08-17T08:13:46.410Z,97613.09
2022-08-17T08:17:02.245Z,97622.31
2022-08-17T08:20:42.402Z,97626.84
2022-08-17T08:23:57.581Z,97630.00
2022-08-17T08:27:40.357Z,97610.19
2022-08-17T08:30:53.424Z,97610.31
2022-08-17T08:34:53.256Z,97615.94
2022-08-17T08:37:59.232Z,97621.69
2022-08-17T08:41:33.431Z,97612.56
2022-08-17T08:45:00.350Z,97614.00
2022-08-17T08:48:56.855Z,97618.88
2022-08-17T08:52:13.888Z,97617.28
2022-08-17T08:55:36.421Z,97613.94
2022-08-17T08:58:59.655Z,97620.22
2022-08-17T09:02:26.962Z,97623.22
2022-08-17T09:05:57.951Z,97628.75
2022-08-17T09:09:24.586Z,97611.16
2022-08-17T09:12:56.774Z,97623.28
2022-08-17T09:16:16.780Z,97622.69
2022-08-17T09:19:38.347Z,97623.59
2022-08-17T09:22:55.585Z,97621.88
2022-08-17T09:26:13.396Z,97632.47
2022-08-17T09:29:24.657Z,97629.56
2022-08-17T09:32:44.186Z,97630.19
2022-08-17T09:36:00.713Z,97622.72
2022-08-17T09:39:18.018Z,97624.88
2022-08-17T09:42:39.073Z,97625.81
2022-08-17T09:46:04.314Z,97634.59
2022-08-17T09:49:51.095Z,97624.91
2022-08-17T09:53:02.057Z,97614.09
2022-08-17T09:56:36.003Z,97616.16
2022-08-17T10:00:09.372Z,97619.94
2022-08-17T10:04:09.811Z,97606.91
2022-08-17T10:07:34.045Z,97600.94
2022-08-17T10:10:59.155Z,97616.25
2022-08-17T10:14:37.372Z,97611.28
2022-08-17T10:18:13.470Z,97608.78
2022-08-17T10:21:35.217Z,97611.41
2022-08-17T10:25:23.749Z,97617.28
2022-08-17T10:28:43.799Z,97611.38
2022-08-17T10:32:05.376Z,97617.28
2022-08-17T10:35:51.849Z,97614.44
2022-08-17T10:39:21.711Z,97606.91
2022-08-17T10:42:38.048Z,97610.56
2022-08-17T10:46:10.349Z,97606.81
2022-08-17T10:49:48.065Z,97610.13
2022-08-17T10:52:55.632Z,97603.44
2022-08-17T10:56:27.137Z,97600.91
2022-08-17T10:59:55.046Z,97599.56
2022-08-17T11:03:04.909Z,97604.47
2022-08-17T11:06:28.514Z,97596.44
2022-08-17T11:10:18.950Z,97601.59
2022-08-17T11:13:41.993Z,97607.56
2022-08-17T11:17:18.966Z,97604.63
2022-08-17T11:21:32.361Z,97611.13
2022-08-17T11:24:43.352Z,97600.22
2022-08-17T11:28:12.092Z,97602.84
2022-08-17T11:31:37.988Z,97600.91
2022-08-17T11:35:36.038Z,97593.16
2022-08-17T11:38:59.251Z,97597.06
2022-08-17T11:42:21.564Z,97606.13
2022-08-17T11:45:48.315Z,97591.19
2022-08-17T11:49:25.404Z,97597.94
2022-08-17T11:52:47.637Z,97581.44
2022-08-17T11:56:12.352Z,97581.50
2022-08-17T12:00:12.401Z,97585.94
2022-08-17T12:03:59.249Z,97589.28
2022-08-17T12:07:21.487Z,97585.75
2022-08-17T12:10:36.122Z,97585.59
2022-08-17T12:13:55.701Z,97579.22
2022-08-17T12:17:06.824Z,97579.22
2022-08-17T12:20:23.313Z,97571.06
2022-08-17T12:23:44.474Z,97577.84
2022-08-17T12:27:01.801Z,97579.34
2022-08-17T12:30:17.654Z,97569.72
2022-08-17T12:33:36.560Z,97573.13
2022-08-17T12:36:44.236Z,97583.63
2022-08-17T12:40:03.915Z,97578.53
2022-08-17T12:43:26.467Z,97579.94
2022-08-17T12:46:49.181Z,97581.84
2022-08-17T12:49:58.093Z,97571.75
2022-08-17T12:53:13.879Z,97574.69
2022-08-17T12:56:20.551Z,97571.31
2022-08-17T12:59:30.281Z,97577.19
2022-08-17T13:02:53.967Z,97581.63
2022-08-17T13:06:10.442Z,97570.25
2022-08-17T13:09:30.946Z,97563.69
2022-08-17T13:12:43.221Z,97551.06
2022-08-17T13:16:14.400Z,97542.84
2022-08-17T13:19:40.132Z,97568.75
2022-08-17T13:22:55.106Z,97564.63
2022-08-17T13:26:14.935Z,97563.31
2022-08-17T13:29:36.789Z,97549.50
2022-08-17T13:32:49.399Z,97562.78
2022-08-17T13:36:09.574Z,97552.72
2022-08-17T13:39:23.598Z,97558.81
2022-08-17T13:42:51.647Z,97551.06
2022-08-17T13:46:13.208Z,97549.53
2022-08-17T13:49:42.088Z,97562.28
2022-08-17T13:52:54.768Z,97562.38
2022-08-17T13:56:37.690Z,97564.72
2022-08-17T13:59:55.884Z,97567.25
2022-08-17T14:03:15.525Z,97563.34
2022-08-17T14:06:51.994Z,97563.34
2022-08-17T14:09:56.400Z,97558.94
2022-08-17T14:13:05.735Z,97565.25
2022-08-17T14:16:17.512Z,97558.28
2022-08-17T14:19:25.553Z,97563.66
2022-08-17T14:22:37.920Z,97567.91
2022-08-17T14:25:45.961Z,97561.28
2022-08-17T14:28:56.659Z,97558.75
2022-08-17T14:32:14.948Z,97561.69
2022-08-17T14:35:24.925Z,97562.56
2022-08-17T14:38:36.384Z,97558.84
2022-08-17T14:41:50.510Z,97563.91
2022-08-17T14:45:06.330Z,97568.19
2022-08-17T14:48:38.607Z,97566.50
2022-08-17T14:51:46.086Z,97568.19
2022-08-17T14:54:56.213Z,97563.84
2022-08-17T14:58:05.033Z,97564.16
2022-08-17T15:01:12.013Z,97568.50
2022-08-17T15:04:24.552Z,97561.75
2022-08-17T15:07:31.724Z,97568.22
2022-08-17T15:10:53.336Z,97563.56
2022-08-17T15:14:01.098Z,97554.81
2022-08-17T15:17:12.004Z,97555.16
2022-08-17T15:20:23.253Z,97558.09
2022-08-17T15:23:30.625Z,97560.72
2022-08-17T15:26:39.384Z,97562.13
2022-08-17T15:29:45.138Z,97562.56
2022-08-17T15:32:55.190Z,97554.63
2022-08-17T15:36:09.404Z,97559.16
2022-08-17T15:39:14.949Z,97558.53
2022-08-17T15:42:28.293Z,97549.25
2022-08-17T15:45:34.652Z,97549.56
2022-08-17T15:48:44.592Z,97549.25
2022-08-17T15:51:50.288Z,97550.16
2022-08-17T15:54:59.179Z,97551.53
2022-08-17T15:58:07.639Z,97540.28
2022-08-17T16:01:18.440Z,97554.06
2022-08-17T16:04:47.360Z,97559.06
2022-08-17T16:08:00.254Z,97558.91
2022-08-17T16:11:18.802Z,97550.50
2022-08-17T16:14:34.157Z,97559.53
2022-08-17T16:17:41.693Z,97555.16
2022-08-17T16:20:47.538Z,97554.00
2022-08-17T16:23:56.985Z,97548.69
2022-08-17T16:27:03.768Z,97548.44
2022-08-17T16:30:20.774Z,97561.13
2022-08-17T16:33:26.418Z,97556.31
2022-08-17T16:36:32.107Z,97562.91
2022-08-17T16:39:38.224Z,97569.59
2022-08-17T16:42:45.765Z,97557.97
2022-08-17T16:45:54.062Z,97561.34
2022-08-17T16:49:00.856Z,97558.78
2022-08-17T16:52:12.850Z,97568.81
2022-08-17T16:55:27.063Z,97566.88
2022-08-17T16:58:36.074Z,97566.38
2022-08-17T17:01:48.010Z,97564.75
2022-08-17T17:05:12.466Z,97570.41
2022-08-17T17:08:30.592Z,97574.97
2022-08-17T17:11:48.122Z,97582.88
2022-08-17T17:14:59.520Z,97576.56
2022-08-17T17:18:11.743Z,97575.28
2022-08-17T17:21:27.257Z,97580.56
2022-08-17T17:24:53.656Z,97579.78
2022-08-17T17:28:08.746Z,97585.09
2022-08-17T17:31:23.977Z,97583.94
2022-08-17T17:34:46.785Z,97596.16
2022-08-17T17:38:02.108Z,97602.38
2022-08-17T17:41:25.338Z,97596.03
2022-08-17T17:44:47.304Z,97599.69
2022-08-17T17:47:56.308Z,97602.53
2022-08-17T17:52:09.605Z,97603.91
2022-08-17T17:55:06.706Z,97604.34
2022-08-17T17:58:39.500Z,97613.13
2022-08-17T18:02:05.654Z,97617.44
2022-08-17T18:05:35.512Z,97621.56
2022-08-17T18:09:12.142Z,97622.88
2022-08-17T18:12:43.523Z,97627.78
2022-08-17T18:15:55.042Z,97615.16
2022-08-17T18:19:00.645Z,97623.38
2022-08-17T18:22:14.545Z,97624.44
2022-08-17T18:25:45.805Z,97623.63
2022-08-17T18:28:54.631Z,97629.00
2022-08-17T18:32:34.186Z,97626.38
2022-08-17T18:35:40.042Z,97621.63
2022-08-17T18:38:47.192Z,97628.00
2022-08-17T18:41:59.220Z,97638.81
2022-08-17T18:45:04.886Z,97635.66
2022-08-17T18:48:52.947Z,97642.00
2022-08-17T18:52:18.806Z,97643.75
2022-08-17T18:55:29.226Z,97639.25
2022-08-17T18:58:37.582Z,97633.34
2022-08-17T19:02:05.123Z,97646.81
2022-08-17T19:05:29.234Z,97652.38
2022-08-17T19:08:38.769Z,97667.78
2022-08-17T19:11:44.574Z,97674.06
2022-08-17T19:14:58.225Z,97678.03
2022-08-17T19:18:15.730Z,97686.28
2022-08-17T19:21:30.652Z,97676.06
2022-08-17T19:24:47.554Z,97671.84
2022-08-17T19:28:03.553Z,97682.69
2022-08-17T19:31:24.853Z,97683.63
2022-08-17T19:34:40.432Z,97687.50
2022-08-17T19:38:05.277Z,97687.25
2022-08-17T19:41:31.952Z,97689.88
2022-08-17T19:44:57.505Z,97687.41
2022-08-17T19:48:22.342Z,97685.31
2022-08-17T19:51:46.523Z,97678.63
2022-08-17T19:55:05.362Z,97683.50
2022-08-17T19:58:30.111Z,97675.66
2022-08-17T20:01:48.172Z,97680.41
2022-08-17T20:05:06.662Z,97672.25
2022-08-17T20:08:23.366Z,97676.13
2022-08-17T20:11:41.847Z,97681.56
2022-08-17T20:14:57.420Z,97676.16
2022-08-17T20:18:13.470Z,97681.66
2022-08-17T20:21:32.204Z,97685.78
2022-08-17T20:24:50.174Z,97691.53
2022-08-17T20:28:06.380Z,97677.44
2022-08-17T20:31:49.203Z,97669.78
2022-08-17T20:35:11.776Z,97667.69
2022-08-17T20:38:43.995Z,97675.91
2022-08-17T20:42:30.317Z,97671.00
2022-08-17T20:46:13.215Z,97666.91
2022-08-17T20:49:32.948Z,97667.44
2022-08-17T20:52:53.746Z,97669.34
2022-08-17T20:56:02.167Z,97659.03
2022-08-17T20:59:07.860Z,97659.06
2022-08-17T21:02:23.798Z,97657.72
2022-08-17T21:05:34.832Z,97660.44
2022-08-17T21:09:05.749Z,97668.88
2022-08-17T21:12:50.388Z,97662.63
2022-08-17T21:16:10.605Z,97674.34
2022-08-17T21:20:10.275Z,97669.72
2022-08-17T21:23:44.051Z,97665.88
2022-08-17T21:27:08.563Z,97684.13
2022-08-17T21:30:54.040Z,97671.34
2022-08-17T21:34:35.822Z,97664.00
2022-08-17T21:37:48.210Z,97673.03
2022-08-17T21:40:56.766Z,97668.41
2022-08-17T21:44:36.842Z,97665.13
2022-08-17T21:48:16.032Z,97664.91
2022-08-17T21:51:28.940Z,97653.47
2022-08-17T21:54:42.802Z,97651.34
2022-08-17T21:57:53.161Z,97648.63
2022-08-17T22:01:26.830Z,97650.03
2022-08-17T22:04:42.544Z,97644.91
2022-08-17T22:07:53.228Z,97645.72
2022-08-17T22:11:05.228Z,97649.53
2022-08-17T22:14:20.358Z,97642.44
2022-08-17T22:17:36.824Z,97639.47
2022-08-17T22:21:03.403Z,97631.59
2022-08-17T22:24:25.182Z,97628.31
2022-08-17T22:28:10.808Z,97622.63
2022-08-17T22:31:30.214Z,97620.16
2022-08-17T22:34:36.511Z,97620.19
2022-08-17T22:37:50.397Z,97616.41
2022-08-17T22:41:15.508Z,97615.34
2022-08-17T22:44:34.282Z,97612.59
2022-08-17T22:47:48.766Z,97617.50
2022-08-17T22:51:12.469Z,97617.50
2022-08-17T22:54:34.752Z,97628.09
2022-08-17T22:58:08.837Z,97643.00
2022-08-17T23:01:37.793Z,97657.44
2022-08-17T23:04:52.278Z,97664.75
2022-08-17T23:08:02.329Z,97656.91
2022-08-17T23:11:12.123Z,97666.69
2022-08-17T23:14:22.733Z,97671.59
2022-08-17T23:17:28.361Z,97672.38
2022-08-17T23:20:38.093Z,97665.34
2022-08-17T23:23:43.900Z,97674.78
2022-08-17T23:26:52.599Z,97680.47
2022-08-17T23:29:58.387Z,97673.16
2022-08-17T23:33:10.619Z,97676.38
2022-08-17T23:36:18.019Z,97671.25
2022-08-17T23:39:28.245Z,97669.06
2022-08-17T23:42:43.385Z,97675.06
2022-08-17T23:45:52.014Z,97675.59
2022-08-17T23:48:57.768Z,97689.69
2022-08-17T23:52:18.848Z,97677.16
2022-08-17T23:55:35.122Z,97664.63
2022-08-17T23:58:46.594Z,97665.19
